sensor_id;sensor_type;location;lat;lon;timestamp;P1;durP1;ratioP1;P2;durP2;ratioP2
5040;SDS011;2539;52.568;13.364;2023-02-16T00:03:48;44.03;;;27.07;;
5040;SDS011;2539;52.568;13.364;2023-02-16T00:06:14;46.17;;;27.23;;
5040;SDS011;2539;52.568;13.364;2023-02-16T00:08:42;48.07;;;27.97;;
5040;SDS011;2539;52.568;13.364;2023-02-16T00:11:15;52.30;;;29.20;;
5040;SDS011;2539;52.568;13.364;2023-02-16T00:14:20;53.10;;;27.23;;
5040;SDS011;2539;52.568;13.364;2023-02-16T00:16:48;48.87;;;25.87;;
5040;SDS011;2539;52.568;13.364;2023-02-16T00:19:22;44.90;;;27.03;;
5040;SDS011;2539;52.568;13.364;2023-02-16T00:21:54;42.77;;;25.27;;
5040;SDS011;2539;52.568;13.364;2023-02-16T00:24:24;42.50;;;25.30;;
5040;SDS011;2539;52.568;13.364;2023-02-16T00:26:52;44.93;;;26.73;;
5040;SDS011;2539;52.568;13.364;2023-02-16T00:29:26;40.50;;;25.40;;
5040;SDS011;2539;52.568;13.364;2023-02-16T00:31:56;43.10;;;25.80;;
5040;SDS011;2539;52.568;13.364;2023-02-16T00:34:28;41.03;;;25.13;;
5040;SDS011;2539;52.568;13.364;2023-02-16T00:37:00;44.60;;;25.50;;
5040;SDS011;2539;52.568;13.364;2023-02-16T00:39:28;46.73;;;26.53;;
5040;SDS011;2539;52.568;13.364;2023-02-16T00:49:48;36.40;;;23.63;;
5040;SDS011;2539;52.568;13.364;2023-02-16T00:52:23;37.93;;;24.07;;
5040;SDS011;2539;52.568;13.364;2023-02-16T00:54:56;38.47;;;24.73;;
5040;SDS011;2539;52.568;13.364;2023-02-16T00:57:23;38.70;;;23.97;;
5040;SDS011;2539;52.568;13.364;2023-02-16T00:59:52;40.73;;;25.30;;
5040;SDS011;2539;52.568;13.364;2023-02-16T01:02:33;35.90;;;22.70;;
5040;SDS011;2539;52.568;13.364;2023-02-16T01:05:04;38.43;;;24.60;;
5040;SDS011;2539;52.568;13.364;2023-02-16T01:07:31;37.30;;;24.90;;
5040;SDS011;2539;52.568;13.364;2023-02-16T01:10:19;38.90;;;23.63;;
5040;SDS011;2539;52.568;13.364;2023-02-16T01:13:04;40.87;;;24.63;;
5040;SDS011;2539;52.568;13.364;2023-02-16T01:15:30;37.77;;;24.83;;
5040;SDS011;2539;52.568;13.364;2023-02-16T01:17:56;35.00;;;23.40;;
5040;SDS011;2539;52.568;13.364;2023-02-16T01:20:26;38.83;;;24.33;;
5040;SDS011;2539;52.568;13.364;2023-02-16T01:22:55;41.17;;;25.10;;
5040;SDS011;2539;52.568;13.364;2023-02-16T01:25:22;40.90;;;23.57;;
5040;SDS011;2539;52.568;13.364;2023-02-16T01:27:48;39.67;;;24.50;;
5040;SDS011;2539;52.568;13.364;2023-02-16T01:30:16;36.17;;;23.50;;
5040;SDS011;2539;52.568;13.364;2023-02-16T01:32:45;34.63;;;23.03;;
5040;SDS011;2539;52.568;13.364;2023-02-16T01:35:17;34.90;;;22.80;;
5040;SDS011;2539;52.568;13.364;2023-02-16T01:37:48;35.37;;;23.00;;
5040;SDS011;2539;52.568;13.364;2023-02-16T01:40:22;40.17;;;24.20;;
5040;SDS011;2539;52.568;13.364;2023-02-16T01:43:01;37.37;;;22.67;;
5040;SDS011;2539;52.568;13.364;2023-02-16T01:45:36;38.33;;;25.30;;
5040;SDS011;2539;52.568;13.364;2023-02-16T01:48:27;37.07;;;23.50;;
5040;SDS011;2539;52.568;13.364;2023-02-16T01:50:58;36.80;;;23.33;;
5040;SDS011;2539;52.568;13.364;2023-02-16T01:53:36;40.37;;;23.73;;
5040;SDS011;2539;52.568;13.364;2023-02-16T01:59:34;38.57;;;24.67;;
5040;SDS011;2539;52.568;13.364;2023-02-16T02:02:13;36.03;;;22.47;;
5040;SDS011;2539;52.568;13.364;2023-02-16T02:07:44;39.57;;;24.60;;
5040;SDS011;2539;52.568;13.364;2023-02-16T02:13:42;37.73;;;24.47;;
5040;SDS011;2539;52.568;13.364;2023-02-16T02:16:15;30.90;;;21.00;;
5040;SDS011;2539;52.568;13.364;2023-02-16T02:18:44;37.37;;;23.20;;
5040;SDS011;2539;52.568;13.364;2023-02-16T02:21:22;36.00;;;23.30;;
5040;SDS011;2539;52.568;13.364;2023-02-16T02:24:26;36.30;;;23.97;;
5040;SDS011;2539;52.568;13.364;2023-02-16T02:27:19;36.40;;;22.53;;
5040;SDS011;2539;52.568;13.364;2023-02-16T02:29:53;33.40;;;22.30;;
5040;SDS011;2539;52.568;13.364;2023-02-16T02:32:53;36.20;;;23.20;;
5040;SDS011;2539;52.568;13.364;2023-02-16T02:35:50;33.90;;;22.80;;
5040;SDS011;2539;52.568;13.364;2023-02-16T02:41:38;36.37;;;23.30;;
5040;SDS011;2539;52.568;13.364;2023-02-16T02:44:28;35.60;;;23.20;;
5040;SDS011;2539;52.568;13.364;2023-02-16T02:46:54;34.57;;;23.63;;
5040;SDS011;2539;52.568;13.364;2023-02-16T02:49:21;39.70;;;23.80;;
5040;SDS011;2539;52.568;13.364;2023-02-16T02:51:48;45.73;;;24.37;;
5040;SDS011;2539;52.568;13.364;2023-02-16T02:54:16;35.33;;;22.00;;
5040;SDS011;2539;52.568;13.364;2023-02-16T02:57:10;33.43;;;21.60;;
5040;SDS011;2539;52.568;13.364;2023-02-16T03:03:04;32.90;;;22.03;;
5040;SDS011;2539;52.568;13.364;2023-02-16T03:05:32;37.10;;;22.60;;
5040;SDS011;2539;52.568;13.364;2023-02-16T03:08:19;30.17;;;20.50;;
5040;SDS011;2539;52.568;13.364;2023-02-16T03:10:54;29.57;;;20.43;;
5040;SDS011;2539;52.568;13.364;2023-02-16T03:13:43;33.57;;;22.10;;
5040;SDS011;2539;52.568;13.364;2023-02-16T03:16:13;32.40;;;21.30;;
5040;SDS011;2539;52.568;13.364;2023-02-16T03:18:46;34.53;;;21.40;;
5040;SDS011;2539;52.568;13.364;2023-02-16T03:21:31;35.00;;;21.67;;
5040;SDS011;2539;52.568;13.364;2023-02-16T03:24:20;30.90;;;21.57;;
5040;SDS011;2539;52.568;13.364;2023-02-16T03:27:11;32.33;;;21.63;;
5040;SDS011;2539;52.568;13.364;2023-02-16T03:29:58;33.07;;;20.50;;
5040;SDS011;2539;52.568;13.364;2023-02-16T03:32:26;31.57;;;21.50;;
5040;SDS011;2539;52.568;13.364;2023-02-16T03:34:52;32.53;;;20.40;;
5040;SDS011;2539;52.568;13.364;2023-02-16T03:37:18;31.80;;;20.37;;
5040;SDS011;2539;52.568;13.364;2023-02-16T03:39:45;33.20;;;21.00;;
5040;SDS011;2539;52.568;13.364;2023-02-16T03:42:30;32.93;;;21.57;;
5040;SDS011;2539;52.568;13.364;2023-02-16T03:44:56;31.37;;;21.33;;
5040;SDS011;2539;52.568;13.364;2023-02-16T03:47:22;36.17;;;23.03;;
5040;SDS011;2539;52.568;13.364;2023-02-16T03:49:48;35.03;;;23.10;;
5040;SDS011;2539;52.568;13.364;2023-02-16T03:52:14;38.93;;;23.10;;
5040;SDS011;2539;52.568;13.364;2023-02-16T03:54:41;32.03;;;20.57;;
5040;SDS011;2539;52.568;13.364;2023-02-16T03:57:07;31.60;;;20.70;;
5040;SDS011;2539;52.568;13.364;2023-02-16T03:59:33;33.60;;;21.47;;
5040;SDS011;2539;52.568;13.364;2023-02-16T04:02:00;34.97;;;22.70;;
5040;SDS011;2539;52.568;13.364;2023-02-16T04:04:26;36.07;;;21.90;;
5040;SDS011;2539;52.568;13.364;2023-02-16T04:06:52;36.77;;;22.33;;
5040;SDS011;2539;52.568;13.364;2023-02-16T04:09:19;32.93;;;21.60;;
5040;SDS011;2539;52.568;13.364;2023-02-16T04:11:45;35.60;;;21.70;;
5040;SDS011;2539;52.568;13.364;2023-02-16T04:14:30;34.73;;;21.17;;
5040;SDS011;2539;52.568;13.364;2023-02-16T04:16:56;32.73;;;21.33;;
5040;SDS011;2539;52.568;13.364;2023-02-16T04:19:22;32.13;;;21.23;;
5040;SDS011;2539;52.568;13.364;2023-02-16T04:21:49;33.77;;;20.97;;
5040;SDS011;2539;52.568;13.364;2023-02-16T04:24:17;36.03;;;21.10;;
5040;SDS011;2539;52.568;13.364;2023-02-16T04:26:43;33.80;;;21.70;;
5040;SDS011;2539;52.568;13.364;2023-02-16T04:29:10;33.10;;;20.77;;
5040;SDS011;2539;52.568;13.364;2023-02-16T04:31:36;29.17;;;21.10;;
5040;SDS011;2539;52.568;13.364;2023-02-16T04:34:03;33.23;;;21.60;;
5040;SDS011;2539;52.568;13.364;2023-02-16T04:36:29;34.53;;;21.40;;
5040;SDS011;2539;52.568;13.364;2023-02-16T04:38:56;33.53;;;21.60;;
5040;SDS011;2539;52.568;13.364;2023-02-16T04:41:21;32.67;;;22.20;;
5040;SDS011;2539;52.568;13.364;2023-02-16T04:43:47;31.03;;;21.17;;
5040;SDS011;2539;52.568;13.364;2023-02-16T04:46:12;37.83;;;22.53;;
5040;SDS011;2539;52.568;13.364;2023-02-16T04:48:39;34.20;;;21.17;;
5040;SDS011;2539;52.568;13.364;2023-02-16T04:51:05;30.93;;;20.63;;
5040;SDS011;2539;52.568;13.364;2023-02-16T04:53:31;34.47;;;20.80;;
5040;SDS011;2539;52.568;13.364;2023-02-16T04:55:57;33.07;;;21.33;;
5040;SDS011;2539;52.568;13.364;2023-02-16T04:58:24;29.87;;;20.80;;
5040;SDS011;2539;52.568;13.364;2023-02-16T05:00:50;32.97;;;21.50;;
5040;SDS011;2539;52.568;13.364;2023-02-16T05:03:16;31.20;;;20.60;;
5040;SDS011;2539;52.568;13.364;2023-02-16T05:05:42;32.40;;;21.17;;
5040;SDS011;2539;52.568;13.364;2023-02-16T05:08:09;34.33;;;22.07;;
5040;SDS011;2539;52.568;13.364;2023-02-16T05:10:35;33.53;;;21.60;;
5040;SDS011;2539;52.568;13.364;2023-02-16T05:13:01;30.57;;;20.27;;
5040;SDS011;2539;52.568;13.364;2023-02-16T05:15:46;35.50;;;20.43;;
5040;SDS011;2539;52.568;13.364;2023-02-16T05:18:12;42.67;;;19.57;;
5040;SDS011;2539;52.568;13.364;2023-02-16T05:20:39;29.30;;;19.67;;
5040;SDS011;2539;52.568;13.364;2023-02-16T05:23:23;31.70;;;19.73;;
5040;SDS011;2539;52.568;13.364;2023-02-16T05:25:50;28.97;;;17.87;;
5040;SDS011;2539;52.568;13.364;2023-02-16T05:28:16;29.07;;;20.30;;
5040;SDS011;2539;52.568;13.364;2023-02-16T05:30:42;31.87;;;19.30;;
5040;SDS011;2539;52.568;13.364;2023-02-16T05:33:09;33.90;;;20.20;;
5040;SDS011;2539;52.568;13.364;2023-02-16T05:35:35;34.40;;;22.70;;
5040;SDS011;2539;52.568;13.364;2023-02-16T05:38:01;30.17;;;19.27;;
5040;SDS011;2539;52.568;13.364;2023-02-16T05:40:28;31.17;;;20.10;;
5040;SDS011;2539;52.568;13.364;2023-02-16T05:42:54;35.27;;;19.10;;
5040;SDS011;2539;52.568;13.364;2023-02-16T05:45:20;27.07;;;18.27;;
5040;SDS011;2539;52.568;13.364;2023-02-16T05:47:46;26.27;;;17.70;;
5040;SDS011;2539;52.568;13.364;2023-02-16T05:50:13;29.30;;;18.17;;
5040;SDS011;2539;52.568;13.364;2023-02-16T05:52:39;27.80;;;18.33;;
5040;SDS011;2539;52.568;13.364;2023-02-16T05:55:05;28.73;;;19.20;;
5040;SDS011;2539;52.568;13.364;2023-02-16T05:57:32;26.20;;;17.30;;
5040;SDS011;2539;52.568;13.364;2023-02-16T06:00:00;26.27;;;19.07;;
5040;SDS011;2539;52.568;13.364;2023-02-16T06:02:28;28.63;;;19.63;;
5040;SDS011;2539;52.568;13.364;2023-02-16T06:04:54;26.93;;;17.00;;
5040;SDS011;2539;52.568;13.364;2023-02-16T06:07:20;30.47;;;18.10;;
5040;SDS011;2539;52.568;13.364;2023-02-16T06:09:46;28.07;;;17.93;;
5040;SDS011;2539;52.568;13.364;2023-02-16T06:12:11;27.20;;;17.13;;
5040;SDS011;2539;52.568;13.364;2023-02-16T06:14:37;40.20;;;18.43;;
5040;SDS011;2539;52.568;13.364;2023-02-16T06:17:03;28.40;;;17.97;;
5040;SDS011;2539;52.568;13.364;2023-02-16T06:19:29;25.50;;;17.33;;
5040;SDS011;2539;52.568;13.364;2023-02-16T06:21:55;26.37;;;16.03;;
5040;SDS011;2539;52.568;13.364;2023-02-16T06:24:21;26.53;;;17.03;;
5040;SDS011;2539;52.568;13.364;2023-02-16T06:26:48;28.87;;;16.37;;
5040;SDS011;2539;52.568;13.364;2023-02-16T06:29:14;26.30;;;18.27;;
5040;SDS011;2539;52.568;13.364;2023-02-16T06:31:40;25.30;;;16.90;;
5040;SDS011;2539;52.568;13.364;2023-02-16T06:34:05;26.30;;;18.33;;
5040;SDS011;2539;52.568;13.364;2023-02-16T06:36:31;23.00;;;15.90;;
5040;SDS011;2539;52.568;13.364;2023-02-16T06:38:58;25.50;;;16.77;;
5040;SDS011;2539;52.568;13.364;2023-02-16T06:41:25;25.53;;;17.90;;
5040;SDS011;2539;52.568;13.364;2023-02-16T06:44:03;26.90;;;16.93;;
5040;SDS011;2539;52.568;13.364;2023-02-16T06:46:37;25.10;;;16.93;;
5040;SDS011;2539;52.568;13.364;2023-02-16T06:49:03;26.27;;;17.23;;
5040;SDS011;2539;52.568;13.364;2023-02-16T06:51:30;24.50;;;16.93;;
5040;SDS011;2539;52.568;13.364;2023-02-16T06:53:56;29.70;;;17.73;;
5040;SDS011;2539;52.568;13.364;2023-02-16T06:56:23;25.30;;;15.83;;
5040;SDS011;2539;52.568;13.364;2023-02-16T06:58:49;24.87;;;17.17;;
5040;SDS011;2539;52.568;13.364;2023-02-16T07:01:16;27.60;;;16.97;;
5040;SDS011;2539;52.568;13.364;2023-02-16T07:03:54;31.63;;;17.70;;
5040;SDS011;2539;52.568;13.364;2023-02-16T07:06:22;22.87;;;16.20;;
5040;SDS011;2539;52.568;13.364;2023-02-16T07:08:50;25.20;;;16.03;;
5040;SDS011;2539;52.568;13.364;2023-02-16T07:11:17;30.30;;;17.70;;
5040;SDS011;2539;52.568;13.364;2023-02-16T07:13:44;25.10;;;16.10;;
5040;SDS011;2539;52.568;13.364;2023-02-16T07:16:12;24.70;;;17.03;;
5040;SDS011;2539;52.568;13.364;2023-02-16T07:18:39;24.50;;;16.20;;
5040;SDS011;2539;52.568;13.364;2023-02-16T07:21:05;25.03;;;16.67;;
5040;SDS011;2539;52.568;13.364;2023-02-16T07:23:32;25.03;;;16.17;;
5040;SDS011;2539;52.568;13.364;2023-02-16T07:25:58;27.50;;;17.40;;
5040;SDS011;2539;52.568;13.364;2023-02-16T07:28:25;24.10;;;15.30;;
5040;SDS011;2539;52.568;13.364;2023-02-16T07:30:51;24.90;;;16.10;;
5040;SDS011;2539;52.568;13.364;2023-02-16T07:33:17;27.23;;;14.87;;
5040;SDS011;2539;52.568;13.364;2023-02-16T07:35:44;28.07;;;17.13;;
5040;SDS011;2539;52.568;13.364;2023-02-16T07:38:10;22.13;;;16.17;;
5040;SDS011;2539;52.568;13.364;2023-02-16T07:40:36;24.93;;;15.60;;
5040;SDS011;2539;52.568;13.364;2023-02-16T07:43:04;26.63;;;17.10;;
5040;SDS011;2539;52.568;13.364;2023-02-16T07:45:31;25.53;;;16.40;;
5040;SDS011;2539;52.568;13.364;2023-02-16T07:47:58;25.43;;;17.00;;
5040;SDS011;2539;52.568;13.364;2023-02-16T07:50:26;24.60;;;17.50;;
5040;SDS011;2539;52.568;13.364;2023-02-16T07:52:52;29.47;;;18.33;;
5040;SDS011;2539;52.568;13.364;2023-02-16T07:55:18;25.33;;;17.40;;
5040;SDS011;2539;52.568;13.364;2023-02-16T07:57:45;27.63;;;16.50;;
5040;SDS011;2539;52.568;13.364;2023-02-16T08:00:14;28.70;;;17.03;;
5040;SDS011;2539;52.568;13.364;2023-02-16T08:02:40;27.00;;;18.00;;
5040;SDS011;2539;52.568;13.364;2023-02-16T08:05:07;26.40;;;17.93;;
5040;SDS011;2539;52.568;13.364;2023-02-16T08:07:33;31.43;;;16.70;;
5040;SDS011;2539;52.568;13.364;2023-02-16T08:09:59;25.43;;;17.20;;
5040;SDS011;2539;52.568;13.364;2023-02-16T08:12:25;26.50;;;17.00;;
5040;SDS011;2539;52.568;13.364;2023-02-16T08:14:50;25.03;;;17.00;;
5040;SDS011;2539;52.568;13.364;2023-02-16T08:17:16;23.57;;;16.17;;
5040;SDS011;2539;52.568;13.364;2023-02-16T08:19:43;25.93;;;16.07;;
5040;SDS011;2539;52.568;13.364;2023-02-16T08:22:09;26.50;;;17.67;;
5040;SDS011;2539;52.568;13.364;2023-02-16T08:24:36;28.80;;;17.57;;
5040;SDS011;2539;52.568;13.364;2023-02-16T08:27:03;26.30;;;16.80;;
5040;SDS011;2539;52.568;13.364;2023-02-16T08:29:30;29.27;;;17.50;;
5040;SDS011;2539;52.568;13.364;2023-02-16T08:31:58;27.90;;;16.70;;
5040;SDS011;2539;52.568;13.364;2023-02-16T08:34:25;24.70;;;15.80;;
5040;SDS011;2539;52.568;13.364;2023-02-16T08:36:52;29.73;;;18.73;;
5040;SDS011;2539;52.568;13.364;2023-02-16T08:39:22;27.27;;;18.13;;
5040;SDS011;2539;52.568;13.364;2023-02-16T08:41:50;26.50;;;17.97;;
5040;SDS011;2539;52.568;13.364;2023-02-16T08:44:18;28.10;;;16.13;;
5040;SDS011;2539;52.568;13.364;2023-02-16T08:46:47;26.47;;;18.27;;
5040;SDS011;2539;52.568;13.364;2023-02-16T08:49:15;29.30;;;18.27;;
5040;SDS011;2539;52.568;13.364;2023-02-16T08:51:44;26.00;;;17.63;;
5040;SDS011;2539;52.568;13.364;2023-02-16T08:54:16;25.47;;;17.90;;
5040;SDS011;2539;52.568;13.364;2023-02-16T08:56:44;29.50;;;17.30;;
5040;SDS011;2539;52.568;13.364;2023-02-16T08:59:13;27.90;;;15.80;;
5040;SDS011;2539;52.568;13.364;2023-02-16T09:01:40;26.60;;;17.37;;
5040;SDS011;2539;52.568;13.364;2023-02-16T09:04:07;29.17;;;17.40;;
5040;SDS011;2539;52.568;13.364;2023-02-16T09:06:35;25.77;;;17.00;;
5040;SDS011;2539;52.568;13.364;2023-02-16T09:09:03;27.77;;;16.67;;
5040;SDS011;2539;52.568;13.364;2023-02-16T09:11:30;32.27;;;18.43;;
5040;SDS011;2539;52.568;13.364;2023-02-16T09:13:57;25.73;;;17.00;;
5040;SDS011;2539;52.568;13.364;2023-02-16T09:16:23;33.83;;;19.70;;
5040;SDS011;2539;52.568;13.364;2023-02-16T09:18:52;25.10;;;17.10;;
5040;SDS011;2539;52.568;13.364;2023-02-16T09:21:20;33.83;;;17.70;;
5040;SDS011;2539;52.568;13.364;2023-02-16T09:23:50;29.80;;;19.00;;
5040;SDS011;2539;52.568;13.364;2023-02-16T09:26:20;28.43;;;18.00;;
5040;SDS011;2539;52.568;13.364;2023-02-16T09:28:48;28.30;;;19.20;;
5040;SDS011;2539;52.568;13.364;2023-02-16T09:31:16;33.40;;;21.63;;
5040;SDS011;2539;52.568;13.364;2023-02-16T09:33:54;31.23;;;20.17;;
5040;SDS011;2539;52.568;13.364;2023-02-16T09:36:22;33.10;;;19.27;;
5040;SDS011;2539;52.568;13.364;2023-02-16T09:38:49;30.50;;;18.60;;
5040;SDS011;2539;52.568;13.364;2023-02-16T09:44:19;28.83;;;18.00;;
5040;SDS011;2539;52.568;13.364;2023-02-16T09:46:55;28.07;;;19.60;;
5040;SDS011;2539;52.568;13.364;2023-02-16T09:49:37;27.50;;;17.83;;
5040;SDS011;2539;52.568;13.364;2023-02-16T09:55:05;32.10;;;19.03;;
5040;SDS011;2539;52.568;13.364;2023-02-16T09:57:40;25.23;;;17.50;;
5040;SDS011;2539;52.568;13.364;2023-02-16T10:06:27;28.93;;;18.77;;
5040;SDS011;2539;52.568;13.364;2023-02-16T10:09:08;31.87;;;20.10;;
5040;SDS011;2539;52.568;13.364;2023-02-16T10:11:40;33.27;;;20.40;;
5040;SDS011;2539;52.568;13.364;2023-02-16T10:14:15;30.33;;;19.47;;
5040;SDS011;2539;52.568;13.364;2023-02-16T10:20:12;50.83;;;28.77;;
5040;SDS011;2539;52.568;13.364;2023-02-16T10:22:44;32.30;;;20.00;;
5040;SDS011;2539;52.568;13.364;2023-02-16T10:28:47;28.67;;;19.67;;
5040;SDS011;2539;52.568;13.364;2023-02-16T10:31:19;39.33;;;20.13;;
5040;SDS011;2539;52.568;13.364;2023-02-16T10:34:11;33.23;;;20.97;;
5040;SDS011;2539;52.568;13.364;2023-02-16T10:37:13;30.17;;;19.67;;
5040;SDS011;2539;52.568;13.364;2023-02-16T10:43:04;29.17;;;19.37;;
5040;SDS011;2539;52.568;13.364;2023-02-16T10:48:19;27.90;;;19.13;;
5040;SDS011;2539;52.568;13.364;2023-02-16T10:59:06;31.23;;;19.40;;
5040;SDS011;2539;52.568;13.364;2023-02-16T11:01:42;28.23;;;19.37;;
5040;SDS011;2539;52.568;13.364;2023-02-16T11:07:05;31.20;;;19.80;;
5040;SDS011;2539;52.568;13.364;2023-02-16T11:09:33;32.30;;;19.30;;
5040;SDS011;2539;52.568;13.364;2023-02-16T11:12:01;32.47;;;19.37;;
5040;SDS011;2539;52.568;13.364;2023-02-16T11:14:39;30.77;;;19.13;;
5040;SDS011;2539;52.568;13.364;2023-02-16T11:17:16;31.00;;;20.03;;
5040;SDS011;2539;52.568;13.364;2023-02-16T11:19:55;37.70;;;25.50;;
5040;SDS011;2539;52.568;13.364;2023-02-16T11:22:36;30.77;;;20.00;;
5040;SDS011;2539;52.568;13.364;2023-02-16T11:27:52;37.90;;;24.43;;
5040;SDS011;2539;52.568;13.364;2023-02-16T11:33:00;32.70;;;21.77;;
5040;SDS011;2539;52.568;13.364;2023-02-16T11:35:29;29.73;;;19.03;;
5040;SDS011;2539;52.568;13.364;2023-02-16T11:37:57;34.57;;;22.80;;
5040;SDS011;2539;52.568;13.364;2023-02-16T11:40:27;35.10;;;21.10;;
5040;SDS011;2539;52.568;13.364;2023-02-16T11:42:57;31.83;;;20.87;;
5040;SDS011;2539;52.568;13.364;2023-02-16T11:45:32;32.50;;;19.83;;
5040;SDS011;2539;52.568;13.364;2023-02-16T11:48:01;32.70;;;20.13;;
5040;SDS011;2539;52.568;13.364;2023-02-16T11:50:33;30.73;;;20.47;;
5040;SDS011;2539;52.568;13.364;2023-02-16T11:55:36;30.20;;;20.73;;
5040;SDS011;2539;52.568;13.364;2023-02-16T11:58:18;31.37;;;20.60;;
5040;SDS011;2539;52.568;13.364;2023-02-16T12:04:02;30.37;;;19.30;;
5040;SDS011;2539;52.568;13.364;2023-02-16T12:09:15;30.90;;;19.03;;
5040;SDS011;2539;52.568;13.364;2023-02-16T12:11:59;33.23;;;20.07;;
5040;SDS011;2539;52.568;13.364;2023-02-16T12:14:49;32.23;;;20.57;;
5040;SDS011;2539;52.568;13.364;2023-02-16T12:25:33;37.57;;;24.17;;
5040;SDS011;2539;52.568;13.364;2023-02-16T12:33:39;30.77;;;19.87;;
5040;SDS011;2539;52.568;13.364;2023-02-16T12:44:37;32.70;;;20.83;;
5040;SDS011;2539;52.568;13.364;2023-02-16T12:47:08;33.10;;;21.40;;
5040;SDS011;2539;52.568;13.364;2023-02-16T12:52:22;30.10;;;18.80;;
5040;SDS011;2539;52.568;13.364;2023-02-16T12:55:09;31.70;;;19.10;;
5040;SDS011;2539;52.568;13.364;2023-02-16T12:57:40;31.83;;;18.43;;
5040;SDS011;2539;52.568;13.364;2023-02-16T13:00:17;35.83;;;21.93;;
5040;SDS011;2539;52.568;13.364;2023-02-16T13:02:53;29.97;;;19.50;;
5040;SDS011;2539;52.568;13.364;2023-02-16T13:05:28;38.13;;;23.53;;
5040;SDS011;2539;52.568;13.364;2023-02-16T13:11:18;40.50;;;19.60;;
5040;SDS011;2539;52.568;13.364;2023-02-16T13:13:48;37.10;;;20.37;;
5040;SDS011;2539;52.568;13.364;2023-02-16T13:19:09;28.53;;;18.70;;
5040;SDS011;2539;52.568;13.364;2023-02-16T13:21:48;34.53;;;18.10;;
5040;SDS011;2539;52.568;13.364;2023-02-16T13:35:28;30.40;;;18.80;;
5040;SDS011;2539;52.568;13.364;2023-02-16T13:41:11;31.20;;;17.90;;
5040;SDS011;2539;52.568;13.364;2023-02-16T13:44:00;28.60;;;16.73;;
5040;SDS011;2539;52.568;13.364;2023-02-16T13:46:33;25.20;;;15.93;;
5040;SDS011;2539;52.568;13.364;2023-02-16T13:49:04;27.63;;;17.20;;
5040;SDS011;2539;52.568;13.364;2023-02-16T13:51:43;27.40;;;16.97;;
5040;SDS011;2539;52.568;13.364;2023-02-16T13:54:21;27.70;;;16.90;;
5040;SDS011;2539;52.568;13.364;2023-02-16T13:56:53;21.80;;;15.40;;
5040;SDS011;2539;52.568;13.364;2023-02-16T14:01:50;26.17;;;16.90;;
5040;SDS011;2539;52.568;13.364;2023-02-16T14:06:48;24.37;;;15.47;;
5040;SDS011;2539;52.568;13.364;2023-02-16T14:12:14;25.33;;;15.90;;
5040;SDS011;2539;52.568;13.364;2023-02-16T14:20:05;26.70;;;16.00;;
5040;SDS011;2539;52.568;13.364;2023-02-16T14:22:53;29.37;;;15.83;;
5040;SDS011;2539;52.568;13.364;2023-02-16T14:27:54;25.93;;;17.60;;
5040;SDS011;2539;52.568;13.364;2023-02-16T14:33:13;31.03;;;15.60;;
5040;SDS011;2539;52.568;13.364;2023-02-16T14:38:24;31.23;;;18.00;;
5040;SDS011;2539;52.568;13.364;2023-02-16T14:40:58;22.50;;;15.67;;
5040;SDS011;2539;52.568;13.364;2023-02-16T14:43:39;27.10;;;15.70;;
5040;SDS011;2539;52.568;13.364;2023-02-16T14:46:17;30.50;;;16.27;;
5040;SDS011;2539;52.568;13.364;2023-02-16T14:55:34;27.50;;;16.17;;
5040;SDS011;2539;52.568;13.364;2023-02-16T14:58:14;28.33;;;17.33;;
5040;SDS011;2539;52.568;13.364;2023-02-16T15:00:46;31.50;;;18.50;;
5040;SDS011;2539;52.568;13.364;2023-02-16T15:06:27;29.50;;;16.43;;
5040;SDS011;2539;52.568;13.364;2023-02-16T15:09:01;21.50;;;16.03;;
5040;SDS011;2539;52.568;13.364;2023-02-16T15:11:46;32.77;;;18.57;;
5040;SDS011;2539;52.568;13.364;2023-02-16T15:14:49;26.80;;;17.70;;
5040;SDS011;2539;52.568;13.364;2023-02-16T15:17:31;31.03;;;19.77;;
5040;SDS011;2539;52.568;13.364;2023-02-16T15:20:07;24.17;;;14.03;;
5040;SDS011;2539;52.568;13.364;2023-02-16T15:26:00;30.73;;;15.60;;
5040;SDS011;2539;52.568;13.364;2023-02-16T15:28:32;28.30;;;16.83;;
5040;SDS011;2539;52.568;13.364;2023-02-16T15:31:05;23.00;;;15.47;;
5040;SDS011;2539;52.568;13.364;2023-02-16T15:33:36;24.50;;;15.43;;
5040;SDS011;2539;52.568;13.364;2023-02-16T15:36:08;28.93;;;15.83;;
5040;SDS011;2539;52.568;13.364;2023-02-16T15:38:40;21.53;;;14.13;;
5040;SDS011;2539;52.568;13.364;2023-02-16T15:41:15;27.07;;;15.00;;
5040;SDS011;2539;52.568;13.364;2023-02-16T15:43:51;22.50;;;14.23;;
5040;SDS011;2539;52.568;13.364;2023-02-16T15:46:22;24.30;;;14.57;;
5040;SDS011;2539;52.568;13.364;2023-02-16T15:48:57;23.40;;;14.30;;
5040;SDS011;2539;52.568;13.364;2023-02-16T15:51:28;24.50;;;15.57;;
5040;SDS011;2539;52.568;13.364;2023-02-16T15:53:57;24.87;;;15.60;;
5040;SDS011;2539;52.568;13.364;2023-02-16T15:58:57;22.70;;;15.50;;
5040;SDS011;2539;52.568;13.364;2023-02-16T16:01:26;24.13;;;15.10;;
5040;SDS011;2539;52.568;13.364;2023-02-16T16:04:01;24.83;;;14.70;;
5040;SDS011;2539;52.568;13.364;2023-02-16T16:06:37;27.03;;;15.17;;
5040;SDS011;2539;52.568;13.364;2023-02-16T16:09:05;22.97;;;15.73;;
5040;SDS011;2539;52.568;13.364;2023-02-16T16:11:38;27.83;;;14.03;;
5040;SDS011;2539;52.568;13.364;2023-02-16T16:14:04;23.17;;;14.50;;
5040;SDS011;2539;52.568;13.364;2023-02-16T16:16:32;25.23;;;15.93;;
5040;SDS011;2539;52.568;13.364;2023-02-16T16:19:04;28.03;;;15.97;;
5040;SDS011;2539;52.568;13.364;2023-02-16T16:21:32;23.20;;;14.50;;
5040;SDS011;2539;52.568;13.364;2023-02-16T16:26:32;31.10;;;15.33;;
5040;SDS011;2539;52.568;13.364;2023-02-16T16:31:59;26.10;;;16.57;;
5040;SDS011;2539;52.568;13.364;2023-02-16T16:34:30;26.43;;;16.20;;
5040;SDS011;2539;52.568;13.364;2023-02-16T16:37:01;25.53;;;16.83;;
5040;SDS011;2539;52.568;13.364;2023-02-16T16:39:29;30.40;;;20.00;;
5040;SDS011;2539;52.568;13.364;2023-02-16T16:42:08;32.00;;;15.90;;
5040;SDS011;2539;52.568;13.364;2023-02-16T16:44:44;24.90;;;15.83;;
5040;SDS011;2539;52.568;13.364;2023-02-16T16:47:26;27.33;;;17.20;;
5040;SDS011;2539;52.568;13.364;2023-02-16T16:55:19;26.20;;;16.20;;
5040;SDS011;2539;52.568;13.364;2023-02-16T16:57:49;29.20;;;18.37;;
5040;SDS011;2539;52.568;13.364;2023-02-16T17:00:18;25.63;;;16.10;;
5040;SDS011;2539;52.568;13.364;2023-02-16T17:02:45;33.83;;;15.53;;
5040;SDS011;2539;52.568;13.364;2023-02-16T17:05:12;28.80;;;15.70;;
5040;SDS011;2539;52.568;13.364;2023-02-16T17:07:38;24.40;;;15.60;;
5040;SDS011;2539;52.568;13.364;2023-02-16T17:10:04;24.70;;;16.40;;
5040;SDS011;2539;52.568;13.364;2023-02-16T17:12:32;24.53;;;16.00;;
5040;SDS011;2539;52.568;13.364;2023-02-16T17:14:59;21.97;;;15.33;;
5040;SDS011;2539;52.568;13.364;2023-02-16T17:17:26;26.23;;;15.93;;
5040;SDS011;2539;52.568;13.364;2023-02-16T17:19:53;25.40;;;16.23;;
5040;SDS011;2539;52.568;13.364;2023-02-16T17:22:19;26.67;;;16.33;;
5040;SDS011;2539;52.568;13.364;2023-02-16T17:24:46;30.90;;;15.97;;
5040;SDS011;2539;52.568;13.364;2023-02-16T17:27:12;23.23;;;15.47;;
5040;SDS011;2539;52.568;13.364;2023-02-16T17:29:39;22.00;;;15.23;;
5040;SDS011;2539;52.568;13.364;2023-02-16T17:32:07;25.13;;;15.90;;
5040;SDS011;2539;52.568;13.364;2023-02-16T17:34:34;32.83;;;16.90;;
5040;SDS011;2539;52.568;13.364;2023-02-16T17:37:00;30.03;;;16.10;;
5040;SDS011;2539;52.568;13.364;2023-02-16T17:39:29;31.70;;;16.90;;
5040;SDS011;2539;52.568;13.364;2023-02-16T17:41:55;21.87;;;15.03;;
5040;SDS011;2539;52.568;13.364;2023-02-16T17:44:22;26.93;;;14.90;;
5040;SDS011;2539;52.568;13.364;2023-02-16T17:46:47;30.63;;;15.53;;